Wiscasset, Maine
Current Conditions -  °F | °C
As of 11:53 AM on Thursday 27 Nov 2014 (Local Time) from KIWI Reporting Station
Clear Clear  
Wind Chill: 28°   Ceiling: Unl
Heat Index: 34°   Visibility: 10mi
Dew Point: 25°   Wind: 7mph
Humidity: 70%   Direction: NA
Pressure: 29.92"   Gusts: NA
Location:  44°N, 69.66°W
Report Text: KIWI 271653Z AUTO VRB06KT 10SM CLR 01/M04 A2992 RMK AO2 SLP134 T00111039
Loading
Personal Weather Stations






























Interactive Weather Map New forecast layout! Learn more

10-Day Weather Forecast

Advertisements
Track Severe Weather on mobile